METAR Data
IDs: Format: Raw Decoded Include TAF

Data at: 1845 UTC 26 Sep 2021

LFBY 261830Z AUTO 00000KT 9999 // ////// 19/15 Q1019